sensor_id;sensor_type;location;lat;lon;timestamp;pressure;altitude;pressure_sealevel;temperature;humidity
60337;BME280;46978;50.288;28.624;2023-03-13T00:00:49;99085.59;;;-4.29;91.21
60337;BME280;46978;50.288;28.624;2023-03-13T00:01:50;99081.30;;;-4.32;91.14
60337;BME280;46978;50.288;28.624;2023-03-13T00:02:52;99083.78;;;-4.34;91.23
60337;BME280;46978;50.288;28.624;2023-03-13T00:03:54;99092.92;;;-4.37;91.11
60337;BME280;46978;50.288;28.624;2023-03-13T00:04:55;99076.75;;;-4.41;91.02
60337;BME280;46978;50.288;28.624;2023-03-13T00:05:57;99080.97;;;-4.41;91.49
60337;BME280;46978;50.288;28.624;2023-03-13T00:06:59;99077.44;;;-4.45;91.61
60337;BME280;46978;50.288;28.624;2023-03-13T00:08:01;99079.06;;;-4.47;91.41
60337;BME280;46978;50.288;28.624;2023-03-13T00:09:06;99078.95;;;-4.50;91.03
60337;BME280;46978;50.288;28.624;2023-03-13T00:10:09;99080.52;;;-4.54;91.06
60337;BME280;46978;50.288;28.624;2023-03-13T00:11:12;99081.25;;;-4.56;90.99
60337;BME280;46978;50.288;28.624;2023-03-13T00:12:14;99077.75;;;-4.60;90.92
60337;BME280;46978;50.288;28.624;2023-03-13T00:13:15;99083.55;;;-4.62;90.77
60337;BME280;46978;50.288;28.624;2023-03-13T00:14:17;99080.11;;;-4.64;90.80
60337;BME280;46978;50.288;28.624;2023-03-13T00:15:18;99080.84;;;-4.67;90.88
60337;BME280;46978;50.288;28.624;2023-03-13T00:16:20;99080.73;;;-4.70;91.49
60337;BME280;46978;50.288;28.624;2023-03-13T00:17:22;99080.73;;;-4.70;91.94
60337;BME280;46978;50.288;28.624;2023-03-13T00:18:24;99084.05;;;-4.71;92.23
60337;BME280;46978;50.288;28.624;2023-03-13T00:19:26;99092.47;;;-4.72;92.42
60337;BME280;46978;50.288;28.624;2023-03-13T00:20:28;99083.14;;;-4.73;92.67
60337;BME280;46978;50.288;28.624;2023-03-13T00:21:30;99090.73;;;-4.73;93.00
60337;BME280;46978;50.288;28.624;2023-03-13T00:22:31;99092.47;;;-4.72;93.26
60337;BME280;46978;50.288;28.624;2023-03-13T00:23:34;99088.20;;;-4.73;93.53
60337;BME280;46978;50.288;28.624;2023-03-13T00:24:36;99085.67;;;-4.73;93.80
60337;BME280;46978;50.288;28.624;2023-03-13T00:25:38;99088.20;;;-4.73;94.04
60337;BME280;46978;50.288;28.624;2023-03-13T00:26:40;99084.77;;;-4.75;94.37
60337;BME280;46978;50.288;28.624;2023-03-13T00:27:42;99087.30;;;-4.75;94.74
60337;BME280;46978;50.288;28.624;2023-03-13T00:28:44;99092.36;;;-4.75;95.05
60337;BME280;46978;50.288;28.624;2023-03-13T00:29:46;99089.83;;;-4.75;95.18
60337;BME280;46978;50.288;28.624;2023-03-13T00:30:48;99094.88;;;-4.75;95.59
60337;BME280;46978;50.288;28.624;2023-03-13T00:31:50;99085.55;;;-4.76;95.67
60337;BME280;46978;50.288;28.624;2023-03-13T00:32:51;99088.88;;;-4.77;95.69
60337;BME280;46978;50.288;28.624;2023-03-13T00:34:01;99086.34;;;-4.77;95.85
60337;BME280;46978;50.288;28.624;2023-03-13T00:35:03;99083.76;;;-4.79;95.82
60337;BME280;46978;50.288;28.624;2023-03-13T00:36:07;99081.17;;;-4.80;95.79
60337;BME280;46978;50.288;28.624;2023-03-13T00:37:09;99082.84;;;-4.81;95.62
60337;BME280;46978;50.288;28.624;2023-03-13T00:38:11;99080.20;;;-4.84;95.50
60337;BME280;46978;50.288;28.624;2023-03-13T00:39:13;99091.11;;;-4.85;95.56
60337;BME280;46978;50.288;28.624;2023-03-13T00:40:15;99084.34;;;-4.86;95.65
60337;BME280;46978;50.288;28.624;2023-03-13T00:41:22;99081.70;;;-4.89;95.71
60337;BME280;46978;50.288;28.624;2023-03-13T00:42:21;99084.11;;;-4.92;95.64
60337;BME280;46978;50.288;28.624;2023-03-13T00:43:23;99086.64;;;-4.92;95.33
60337;BME280;46978;50.288;28.624;2023-03-13T00:44:24;99085.64;;;-4.96;95.51
60337;BME280;46978;50.288;28.624;2023-03-13T00:45:26;99079.78;;;-4.95;95.79
60337;BME280;46978;50.288;28.624;2023-03-13T00:46:29;99083.05;;;-4.97;95.96
60337;BME280;46978;50.288;28.624;2023-03-13T00:47:30;99091.52;;;-4.97;96.10
60337;BME280;46978;50.288;28.624;2023-03-13T00:48:32;99084.72;;;-4.98;96.23
60337;BME280;46978;50.288;28.624;2023-03-13T00:49:34;99084.66;;;-4.99;96.33
60337;BME280;46978;50.288;28.624;2023-03-13T00:50:36;99077.02;;;-5.01;96.47
60337;BME280;46978;50.288;28.624;2023-03-13T00:51:37;99080.39;;;-5.00;96.57
60337;BME280;46978;50.288;28.624;2023-03-13T00:52:39;99072.80;;;-5.00;96.76
60337;BME280;46978;50.288;28.624;2023-03-13T00:53:41;99077.86;;;-5.00;96.86
60337;BME280;46978;50.288;28.624;2023-03-13T00:54:43;99073.69;;;-5.00;96.91
60337;BME280;46978;50.288;28.624;2023-03-13T00:55:55;99079.54;;;-5.01;96.94
60337;BME280;46978;50.288;28.624;2023-03-13T00:56:57;99072.80;;;-5.00;97.11
60337;BME280;46978;50.288;28.624;2023-03-13T00:57:59;99058.45;;;-5.01;97.20
60337;BME280;46978;50.288;28.624;2023-03-13T00:59:01;99070.22;;;-5.02;96.78
60337;BME280;46978;50.288;28.624;2023-03-13T01:00:06;99071.83;;;-5.04;96.63
60337;BME280;46978;50.288;28.624;2023-03-13T01:01:11;99064.97;;;-5.07;96.52
60337;BME280;46978;50.288;28.624;2023-03-13T01:02:13;99062.38;;;-5.08;96.41
60337;BME280;46978;50.288;28.624;2023-03-13T01:03:15;99066.53;;;-5.10;96.18
60337;BME280;46978;50.288;28.624;2023-03-13T01:04:17;99067.38;;;-5.10;96.87
60337;BME280;46978;50.288;28.624;2023-03-13T01:05:19;99066.59;;;-5.09;97.65
60337;BME280;46978;50.288;28.624;2023-03-13T01:06:23;99065.80;;;-5.08;97.97
60337;BME280;46978;50.288;28.624;2023-03-13T01:07:25;99068.39;;;-5.06;97.99
60337;BME280;46978;50.288;28.624;2023-03-13T01:08:30;99063.33;;;-5.06;97.47
60337;BME280;46978;50.288;28.624;2023-03-13T01:09:31;99060.73;;;-5.08;97.21
60337;BME280;46978;50.288;28.624;2023-03-13T01:10:34;99055.62;;;-5.09;97.07
60337;BME280;46978;50.288;28.624;2023-03-13T01:11:38;99060.67;;;-5.09;96.89
60337;BME280;46978;50.288;28.624;2023-03-13T01:12:40;99053.88;;;-5.10;96.90
60337;BME280;46978;50.288;28.624;2023-03-13T01:13:42;99056.35;;;-5.12;96.31
60337;BME280;46978;50.288;28.624;2023-03-13T01:14:44;99058.82;;;-5.13;96.22
60337;BME280;46978;50.288;28.624;2023-03-13T01:15:45;99054.49;;;-5.16;96.21
60337;BME280;46978;50.288;28.624;2023-03-13T01:16:47;99052.73;;;-5.18;95.80
60337;BME280;46978;50.288;28.624;2023-03-13T01:17:49;99049.25;;;-5.20;95.96
60337;BME280;46978;50.288;28.624;2023-03-13T01:18:53;99044.20;;;-5.20;96.41
60337;BME280;46978;50.288;28.624;2023-03-13T01:19:55;99048.46;;;-5.19;96.87
60337;BME280;46978;50.288;28.624;2023-03-13T01:20:57;99045.99;;;-5.18;97.34
60337;BME280;46978;50.288;28.624;2023-03-13T01:21:59;99039.26;;;-5.17;97.80
60337;BME280;46978;50.288;28.624;2023-03-13T01:23:00;99028.41;;;-5.15;98.20
60337;BME280;46978;50.288;28.624;2023-03-13T01:24:03;99022.61;;;-5.12;98.97
60337;BME280;46978;50.288;28.624;2023-03-13T01:25:05;99025.32;;;-5.08;99.40
60337;BME280;46978;50.288;28.624;2023-03-13T01:26:07;99023.76;;;-5.04;99.79
60337;BME280;46978;50.288;28.624;2023-03-13T01:27:09;99025.44;;;-5.05;99.62
60337;BME280;46978;50.288;28.624;2023-03-13T01:28:11;99023.82;;;-5.02;99.74
60337;BME280;46978;50.288;28.624;2023-03-13T01:29:13;99023.82;;;-5.02;99.97
60337;BME280;46978;50.288;28.624;2023-03-13T01:30:15;99022.97;;;-5.03;99.83
60337;BME280;46978;50.288;28.624;2023-03-13T01:31:19;99016.17;;;-5.04;99.83
60337;BME280;46978;50.288;28.624;2023-03-13T01:32:22;99021.29;;;-5.02;99.85
60337;BME280;46978;50.288;28.624;2023-03-13T01:33:23;99020.50;;;-5.01;99.85
60337;BME280;46978;50.288;28.624;2023-03-13T01:34:25;99021.29;;;-5.02;99.89
60337;BME280;46978;50.288;28.624;2023-03-13T01:35:27;99019.61;;;-5.02;99.89
60337;BME280;46978;50.288;28.624;2023-03-13T01:36:29;99012.84;;;-5.03;99.62
60337;BME280;46978;50.288;28.624;2023-03-13T01:37:30;99016.91;;;-5.07;99.17
60337;BME280;46978;50.288;28.624;2023-03-13T01:38:32;99022.73;;;-5.09;98.93
60337;BME280;46978;50.288;28.624;2023-03-13T01:39:33;99026.78;;;-5.13;98.79
60337;BME280;46978;50.288;28.624;2023-03-13T01:40:47;99022.49;;;-5.15;98.72
60337;BME280;46978;50.288;28.624;2023-03-13T01:41:49;99032.49;;;-5.18;98.95
60337;BME280;46978;50.288;28.624;2023-03-13T01:42:57;99038.28;;;-5.21;99.36
60337;BME280;46978;50.288;28.624;2023-03-13T01:43:56;99044.07;;;-5.24;99.40
60337;BME280;46978;50.288;28.624;2023-03-13T01:44:58;99044.84;;;-5.26;99.42
60337;BME280;46978;50.288;28.624;2023-03-13T01:47:04;99048.92;;;-5.30;99.40
60337;BME280;46978;50.288;28.624;2023-03-13T01:48:06;99055.56;;;-5.32;99.50
60337;BME280;46978;50.288;28.624;2023-03-13T01:49:17;99059.70;;;-5.34;99.51
60337;BME280;46978;50.288;28.624;2023-03-13T01:50:16;99063.84;;;-5.36;99.58
60337;BME280;46978;50.288;28.624;2023-03-13T01:51:29;99062.90;;;-5.38;99.58
60337;BME280;46978;50.288;28.624;2023-03-13T01:52:34;99055.19;;;-5.41;99.52
60337;BME280;46978;50.288;28.624;2023-03-13T02:05:06;99081.70;;;-5.52;100.00
60337;BME280;46978;50.288;28.624;2023-03-13T02:07:47;99083.00;;;-5.62;100.00
60337;BME280;46978;50.288;28.624;2023-03-13T02:08:53;99082.42;;;-5.76;100.00
60337;BME280;46978;50.288;28.624;2023-03-13T02:09:56;99088.20;;;-5.79;100.00
60337;BME280;46978;50.288;28.624;2023-03-13T02:11:21;99090.66;;;-5.80;100.00
60337;BME280;46978;50.288;28.624;2023-03-13T02:12:30;99097.33;;;-5.82;100.00
60337;BME280;46978;50.288;28.624;2023-03-13T02:13:32;99098.91;;;-5.84;100.00
60337;BME280;46978;50.288;28.624;2023-03-13T02:14:36;99098.91;;;-5.84;100.00
60337;BME280;46978;50.288;28.624;2023-03-13T02:15:40;99100.58;;;-5.85;100.00
60337;BME280;46978;50.288;28.624;2023-03-13T02:16:42;99104.78;;;-5.85;100.00
60337;BME280;46978;50.288;28.624;2023-03-13T02:17:45;99099.72;;;-5.85;100.00
60337;BME280;46978;50.288;28.624;2023-03-13T02:18:48;99106.48;;;-5.84;100.00
60337;BME280;46978;50.288;28.624;2023-03-13T02:19:50;99104.02;;;-5.83;100.00
60337;BME280;46978;50.288;28.624;2023-03-13T02:20:56;99109.14;;;-5.81;100.00
60337;BME280;46978;50.288;28.624;2023-03-13T02:23:24;99111.02;;;-5.77;100.00
60337;BME280;46978;50.288;28.624;2023-03-13T02:24:37;99116.13;;;-5.76;100.00
60337;BME280;46978;50.288;28.624;2023-03-13T02:25:48;99120.47;;;-5.73;100.00
60337;BME280;46978;50.288;28.624;2023-03-13T02:26:51;99118.00;;;-5.71;100.00
60337;BME280;46978;50.288;28.624;2023-03-13T02:28:02;99124.04;;;-5.68;100.00
60337;BME280;46978;50.288;28.624;2023-03-13T02:29:01;99124.11;;;-5.66;100.00
60337;BME280;46978;50.288;28.624;2023-03-13T02:30:04;99127.55;;;-5.64;100.00
60337;BME280;46978;50.288;28.624;2023-03-13T02:31:07;99129.36;;;-5.62;100.00
60337;BME280;46978;50.288;28.624;2023-03-13T02:32:09;99133.75;;;-5.57;100.00
60337;BME280;46978;50.288;28.624;2023-03-13T02:33:12;99137.20;;;-5.55;100.00
60337;BME280;46978;50.288;28.624;2023-03-13T02:34:18;99138.05;;;-5.55;100.00
60337;BME280;46978;50.288;28.624;2023-03-13T02:35:21;99139.00;;;-5.53;100.00
60337;BME280;46978;50.288;28.624;2023-03-13T02:36:24;99144.91;;;-5.52;100.00
60337;BME280;46978;50.288;28.624;2023-03-13T02:37:27;99144.98;;;-5.51;100.00
60337;BME280;46978;50.288;28.624;2023-03-13T02:38:34;99146.78;;;-5.48;100.00
60337;BME280;46978;50.288;28.624;2023-03-13T02:39:38;99150.16;;;-5.48;100.00
60337;BME280;46978;50.288;28.624;2023-03-13T02:40:44;99145.96;;;-5.47;100.00
60337;BME280;46978;50.288;28.624;2023-03-13T02:41:47;99142.64;;;-5.46;100.00
60337;BME280;46978;50.288;28.624;2023-03-13T02:42:49;99147.77;;;-5.45;100.00
60337;BME280;46978;50.288;28.624;2023-03-13T02:43:52;99148.62;;;-5.44;100.00
60337;BME280;46978;50.288;28.624;2023-03-13T02:44:54;99142.77;;;-5.43;100.00
60337;BME280;46978;50.288;28.624;2023-03-13T02:46:11;99151.21;;;-5.43;100.00
60337;BME280;46978;50.288;28.624;2023-03-13T02:47:19;99147.95;;;-5.40;100.00
60337;BME280;46978;50.288;28.624;2023-03-13T02:48:30;99149.70;;;-5.39;100.00
60337;BME280;46978;50.288;28.624;2023-03-13T02:49:31;99158.98;;;-5.38;100.00
60337;BME280;46978;50.288;28.624;2023-03-13T02:50:34;99162.47;;;-5.36;100.00
60337;BME280;46978;50.288;28.624;2023-03-13T02:51:40;99156.52;;;-5.36;100.00
60337;BME280;46978;50.288;28.624;2023-03-13T02:52:45;99162.47;;;-5.36;100.00
60337;BME280;46978;50.288;28.624;2023-03-13T02:53:53;99157.47;;;-5.34;100.00
60337;BME280;46978;50.288;28.624;2023-03-13T02:55:02;99165.91;;;-5.34;100.00
60337;BME280;46978;50.288;28.624;2023-03-13T02:56:05;99166.89;;;-5.30;100.00
60337;BME280;46978;50.288;28.624;2023-03-13T02:57:07;99167.78;;;-5.30;100.00
60337;BME280;46978;50.288;28.624;2023-03-13T02:58:08;99173.76;;;-5.28;100.00
60337;BME280;46978;50.288;28.624;2023-03-13T02:59:10;99166.23;;;-5.26;100.00
60337;BME280;46978;50.288;28.624;2023-03-13T03:00:13;99167.16;;;-5.24;100.00
60337;BME280;46978;50.288;28.624;2023-03-13T03:01:15;99164.69;;;-5.23;100.00
60337;BME280;46978;50.288;28.624;2023-03-13T03:02:17;99168.13;;;-5.20;100.00
60337;BME280;46978;50.288;28.624;2023-03-13T03:03:19;99175.84;;;-5.17;100.00
60337;BME280;46978;50.288;28.624;2023-03-13T03:04:22;99166.68;;;-5.15;100.00
60337;BME280;46978;50.288;28.624;2023-03-13T03:05:25;99172.66;;;-5.13;100.00
60337;BME280;46978;50.288;28.624;2023-03-13T03:06:27;99169.40;;;-5.11;100.00
60337;BME280;46978;50.288;28.624;2023-03-13T03:07:28;99168.64;;;-5.08;100.00
60337;BME280;46978;50.288;28.624;2023-03-13T03:08:30;99167.91;;;-5.06;100.00
60337;BME280;46978;50.288;28.624;2023-03-13T03:09:32;99165.44;;;-5.04;100.00
60337;BME280;46978;50.288;28.624;2023-03-13T03:10:35;99167.31;;;-5.00;100.00
60337;BME280;46978;50.288;28.624;2023-03-13T03:11:37;99171.55;;;-4.99;100.00
60337;BME280;46978;50.288;28.624;2023-03-13T03:12:39;99173.34;;;-4.96;100.00
60337;BME280;46978;50.288;28.624;2023-03-13T03:13:41;99168.34;;;-4.95;100.00
60337;BME280;46978;50.288;28.624;2023-03-13T03:14:42;99178.53;;;-4.93;100.00
60337;BME280;46978;50.288;28.624;2023-03-13T03:15:44;99171.86;;;-4.91;100.00
60337;BME280;46978;50.288;28.624;2023-03-13T03:16:45;99175.34;;;-4.89;100.00
60337;BME280;46978;50.288;28.624;2023-03-13T03:17:47;99165.27;;;-4.88;100.00
60337;BME280;46978;50.288;28.624;2023-03-13T03:18:49;99167.04;;;-4.85;100.00
60337;BME280;46978;50.288;28.624;2023-03-13T03:19:50;99165.45;;;-4.83;100.00
60337;BME280;46978;50.288;28.624;2023-03-13T03:20:52;99173.97;;;-4.81;100.00
60337;BME280;46978;50.288;28.624;2023-03-13T03:21:54;99171.49;;;-4.79;100.00
60337;BME280;46978;50.288;28.624;2023-03-13T03:22:55;99176.62;;;-4.78;100.00
60337;BME280;46978;50.288;28.624;2023-03-13T03:23:57;99172.47;;;-4.76;100.00
60337;BME280;46978;50.288;28.624;2023-03-13T03:24:59;99172.47;;;-4.76;100.00
60337;BME280;46978;50.288;28.624;2023-03-13T03:26:02;99166.67;;;-4.73;100.00
60337;BME280;46978;50.288;28.624;2023-03-13T03:27:04;99170.13;;;-4.71;100.00
60337;BME280;46978;50.288;28.624;2023-03-13T03:28:06;99173.59;;;-4.69;100.00
60337;BME280;46978;50.288;28.624;2023-03-13T03:29:07;99160.11;;;-4.68;100.00
60337;BME280;46978;50.288;28.624;2023-03-13T03:30:10;99163.59;;;-4.66;100.00
60337;BME280;46978;50.288;28.624;2023-03-13T03:31:13;99154.14;;;-4.70;100.00
60337;BME280;46978;50.288;28.624;2023-03-13T03:32:15;99167.04;;;-4.64;100.00
60337;BME280;46978;50.288;28.624;2023-03-13T03:33:17;99161.13;;;-4.64;100.00
60337;BME280;46978;50.288;28.624;2023-03-13T03:34:19;99162.83;;;-4.63;100.00
60337;BME280;46978;50.288;28.624;2023-03-13T03:35:21;99164.56;;;-4.62;100.00
60337;BME280;46978;50.288;28.624;2023-03-13T03:36:23;99163.71;;;-4.63;100.00
60337;BME280;46978;50.288;28.624;2023-03-13T03:37:24;99156.97;;;-4.62;100.00
60337;BME280;46978;50.288;28.624;2023-03-13T03:38:26;99156.97;;;-4.62;100.00
60337;BME280;46978;50.288;28.624;2023-03-13T03:39:28;99153.58;;;-4.63;100.00
60337;BME280;46978;50.288;28.624;2023-03-13T03:40:30;99156.97;;;-4.62;100.00
60337;BME280;46978;50.288;28.624;2023-03-13T03:41:31;99145.16;;;-4.62;100.00
60337;BME280;46978;50.288;28.624;2023-03-13T03:42:33;99146.05;;;-4.61;100.00
60337;BME280;46978;50.288;28.624;2023-03-13T03:43:35;99150.28;;;-4.60;100.00
60337;BME280;46978;50.288;28.624;2023-03-13T03:44:36;99146.91;;;-4.61;100.00
60337;BME280;46978;50.288;28.624;2023-03-13T03:45:38;99147.70;;;-4.62;100.00
60337;BME280;46978;50.288;28.624;2023-03-13T03:46:40;99146.05;;;-4.61;100.00
60337;BME280;46978;50.288;28.624;2023-03-13T03:47:41;99146.05;;;-4.61;100.00
60337;BME280;46978;50.288;28.624;2023-03-13T03:48:43;99157.03;;;-4.61;100.00
60337;BME280;46978;50.288;28.624;2023-03-13T03:49:44;99153.64;;;-4.61;100.00
60337;BME280;46978;50.288;28.624;2023-03-13T03:50:46;99152.77;;;-4.62;100.00
60337;BME280;46978;50.288;28.624;2023-03-13T03:51:48;99154.44;;;-4.62;100.00
60337;BME280;46978;50.288;28.624;2023-03-13T03:52:50;99145.11;;;-4.63;100.00
60337;BME280;46978;50.288;28.624;2023-03-13T03:53:51;99147.58;;;-4.65;100.00
60337;BME280;46978;50.288;28.624;2023-03-13T03:54:53;99151.73;;;-4.67;100.00
60337;BME280;46978;50.288;28.624;2023-03-13T03:55:55;99144.92;;;-4.68;100.00
60337;BME280;46978;50.288;28.624;2023-03-13T03:56:57;99139.86;;;-4.68;100.00
60337;BME280;46978;50.288;28.624;2023-03-13T03:57:59;99143.22;;;-4.69;100.00
60337;BME280;46978;50.288;28.624;2023-03-13T03:59:00;99141.55;;;-4.69;100.00
60337;BME280;46978;50.288;28.624;2023-03-13T04:00:03;99137.27;;;-4.70;100.00
60337;BME280;46978;50.288;28.624;2023-03-13T04:01:05;99140.69;;;-4.69;100.00
60337;BME280;46978;50.288;28.624;2023-03-13T04:02:07;99139.01;;;-4.69;100.00
60337;BME280;46978;50.288;28.624;2023-03-13T04:03:08;99137.39;;;-4.66;100.00
60337;BME280;46978;50.288;28.624;2023-03-13T04:04:10;99145.05;;;-4.65;100.00
60337;BME280;46978;50.288;28.624;2023-03-13T04:05:12;99144.19;;;-4.65;100.00
60337;BME280;46978;50.288;28.624;2023-03-13T04:06:14;99145.05;;;-4.65;100.00
60337;BME280;46978;50.288;28.624;2023-03-13T04:07:15;99142.58;;;-4.63;100.00
60337;BME280;46978;50.288;28.624;2023-03-13T04:08:17;99142.52;;;-4.65;100.00
60337;BME280;46978;50.288;28.624;2023-03-13T04:09:19;99143.45;;;-4.63;100.00
60337;BME280;46978;50.288;28.624;2023-03-13T04:10:21;99136.66;;;-4.64;100.00
60337;BME280;46978;50.288;28.624;2023-03-13T04:11:22;99144.31;;;-4.62;100.00
60337;BME280;46978;50.288;28.624;2023-03-13T04:12:24;99145.16;;;-4.62;100.00
60337;BME280;46978;50.288;28.624;2023-03-13T04:13:26;99152.81;;;-4.60;100.00
60337;BME280;46978;50.288;28.624;2023-03-13T04:14:28;99150.34;;;-4.59;100.00
60337;BME280;46978;50.288;28.624;2023-03-13T04:15:29;99149.55;;;-4.58;100.00
60337;BME280;46978;50.288;28.624;2023-03-13T04:16:31;99150.47;;;-4.56;100.00
60337;BME280;46978;50.288;28.624;2023-03-13T04:17:33;99145.46;;;-4.54;100.00
60337;BME280;46978;50.288;28.624;2023-03-13T04:18:34;99149.73;;;-4.53;100.00
60337;BME280;46978;50.288;28.624;2023-03-13T04:19:36;99151.47;;;-4.52;100.00
60337;BME280;46978;50.288;28.624;2023-03-13T04:20:38;99154.97;;;-4.48;100.00
60337;BME280;46978;50.288;28.624;2023-03-13T04:21:40;99156.77;;;-4.46;100.00
60337;BME280;46978;50.288;28.624;2023-03-13T04:22:41;99154.30;;;-4.44;100.00
60337;BME280;46978;50.288;28.624;2023-03-13T04:23:43;99165.34;;;-4.42;100.00
60337;BME280;46978;50.288;28.624;2023-03-13T04:24:45;99156.17;;;-4.39;100.00
60337;BME280;46978;50.288;28.624;2023-03-13T04:25:46;99161.30;;;-4.37;100.00
60337;BME280;46978;50.288;28.624;2023-03-13T04:26:48;99159.71;;;-4.35;100.00
60337;BME280;46978;50.288;28.624;2023-03-13T04:27:50;99162.30;;;-4.34;100.00
60337;BME280;46978;50.288;28.624;2023-03-13T04:28:52;99163.22;;;-4.32;100.00
60337;BME280;46978;50.288;28.624;2023-03-13T04:29:53;99163.27;;;-4.30;100.00
60337;BME280;46978;50.288;28.624;2023-03-13T04:30:55;99174.31;;;-4.28;100.00
60337;BME280;46978;50.288;28.624;2023-03-13T04:31:57;99167.66;;;-4.26;100.00
60337;BME280;46978;50.288;28.624;2023-03-13T04:32:59;99166.83;;;-4.25;100.00
60337;BME280;46978;50.288;28.624;2023-03-13T04:34:00;99173.64;;;-4.24;100.00
60337;BME280;46978;50.288;28.624;2023-03-13T04:35:02;99169.42;;;-4.23;100.00
60337;BME280;46978;50.288;28.624;2023-03-13T04:36:05;99171.22;;;-4.21;100.00
60337;BME280;46978;50.288;28.624;2023-03-13T04:37:07;99170.42;;;-4.20;100.00
60337;BME280;46978;50.288;28.624;2023-03-13T04:38:08;99170.42;;;-4.20;100.00
60337;BME280;46978;50.288;28.624;2023-03-13T04:39:10;99167.12;;;-4.17;100.00
60337;BME280;46978;50.288;28.624;2023-03-13T04:40:12;99171.45;;;-4.15;100.00
60337;BME280;46978;50.288;28.624;2023-03-13T04:41:14;99173.98;;;-4.15;100.00
60337;BME280;46978;50.288;28.624;2023-03-13T04:42:16;99169.83;;;-4.12;100.00
60337;BME280;46978;50.288;28.624;2023-03-13T04:43:17;99174.16;;;-4.10;100.00
60337;BME280;46978;50.288;28.624;2023-03-13T04:44:20;99177.66;;;-4.06;100.00
60337;BME280;46978;50.288;28.624;2023-03-13T04:45:21;99169.26;;;-4.05;100.00
60337;BME280;46978;50.288;28.624;2023-03-13T04:46:23;99172.76;;;-4.02;100.00
60337;BME280;46978;50.288;28.624;2023-03-13T04:47:25;99170.34;;;-3.99;100.00
60337;BME280;46978;50.288;28.624;2023-03-13T04:48:27;99169.59;;;-3.96;100.00
60337;BME280;46978;50.288;28.624;2023-03-13T04:49:28;99172.24;;;-3.93;100.00
60337;BME280;46978;50.288;28.624;2023-03-13T04:50:30;99172.36;;;-3.90;100.00
60337;BME280;46978;50.288;28.624;2023-03-13T04:51:32;99168.25;;;-3.86;100.00
60337;BME280;46978;50.288;28.624;2023-03-13T04:52:33;99175.11;;;-3.84;100.00
60337;BME280;46978;50.288;28.624;2023-03-13T04:53:35;99178.55;;;-3.82;100.00
60337;BME280;46978;50.288;28.624;2023-03-13T04:54:37;99177.81;;;-3.79;99.94
60337;BME280;46978;50.288;28.624;2023-03-13T04:55:39;99182.94;;;-3.77;99.87
60337;BME280;46978;50.288;28.624;2023-03-13T04:56:41;99177.98;;;-3.74;99.68
60337;BME280;46978;50.288;28.624;2023-03-13T04:57:42;99178.89;;;-3.72;99.58
60337;BME280;46978;50.288;28.624;2023-03-13T04:58:46;99178.94;;;-3.71;99.48
60337;BME280;46978;50.288;28.624;2023-03-13T04:59:47;99177.31;;;-3.69;99.39
60337;BME280;46978;50.288;28.624;2023-03-13T05:00:49;99182.44;;;-3.67;99.33
60337;BME280;46978;50.288;28.624;2023-03-13T05:02:11;99185.09;;;-3.64;99.26
60337;BME280;46978;50.288;28.624;2023-03-13T05:03:13;99179.22;;;-3.63;99.22
60337;BME280;46978;50.288;28.624;2023-03-13T05:04:14;99186.19;;;-3.57;98.84
60337;BME280;46978;50.288;28.624;2023-03-13T05:05:16;99186.19;;;-3.57;98.84
60337;BME280;46978;50.288;28.624;2023-03-13T05:06:18;99187.16;;;-3.54;98.92
60337;BME280;46978;50.288;28.624;2023-03-13T05:07:19;99182.19;;;-3.51;98.77
60337;BME280;46978;50.288;28.624;2023-03-13T05:08:21;99187.31;;;-3.49;98.61
60337;BME280;46978;50.288;28.624;2023-03-13T05:09:23;99184.83;;;-3.48;98.46
60337;BME280;46978;50.288;28.624;2023-03-13T05:10:25;99190.01;;;-3.45;98.37
60337;BME280;46978;50.288;28.624;2023-03-13T05:11:26;99191.80;;;-3.42;98.26
60337;BME280;46978;50.288;28.624;2023-03-13T05:12:28;99194.39;;;-3.40;98.09
60337;BME280;46978;50.288;28.624;2023-03-13T05:13:30;99189.38;;;-3.39;97.96
60337;BME280;46978;50.288;28.624;2023-03-13T05:14:32;99192.81;;;-3.37;97.82
60337;BME280;46978;50.288;28.624;2023-03-13T05:15:33;99195.41;;;-3.35;97.66
60337;BME280;46978;50.288;28.624;2023-03-13T05:16:36;99195.45;;;-3.34;97.60
60337;BME280;46978;50.288;28.624;2023-03-13T05:17:38;99195.52;;;-3.32;97.59
60337;BME280;46978;50.288;28.624;2023-03-13T05:18:40;99202.32;;;-3.31;97.51
60337;BME280;46978;50.288;28.624;2023-03-13T05:19:42;99198.05;;;-3.32;97.47
60337;BME280;46978;50.288;28.624;2023-03-13T05:20:43;99204.03;;;-3.30;97.42
60337;BME280;46978;50.288;28.624;2023-03-13T05:21:45;99216.77;;;-3.29;97.39
60337;BME280;46978;50.288;28.624;2023-03-13T05:22:47;99207.50;;;-3.28;97.34
60337;BME280;46978;50.288;28.624;2023-03-13T05:23:48;99210.09;;;-3.27;97.23
60337;BME280;46978;50.288;28.624;2023-03-13T05:24:50;99210.95;;;-3.26;97.23
60337;BME280;46978;50.288;28.624;2023-03-13T05:25:51;99215.27;;;-3.23;97.27
60337;BME280;46978;50.288;28.624;2023-03-13T05:26:53;99212.84;;;-3.20;97.28
60337;BME280;46978;50.288;28.624;2023-03-13T05:27:55;99213.80;;;-3.17;97.23
60337;BME280;46978;50.288;28.624;2023-03-13T05:28:56;99213.91;;;-3.14;97.19
60337;BME280;46978;50.288;28.624;2023-03-13T05:29:58;99220.77;;;-3.11;97.15
60337;BME280;46978;50.288;28.624;2023-03-13T05:31:00;99211.53;;;-3.09;97.09
60337;BME280;46978;50.288;28.624;2023-03-13T05:32:01;99206.50;;;-3.08;97.07
60337;BME280;46978;50.288;28.624;2023-03-13T05:33:03;99210.78;;;-3.07;96.85
60337;BME280;46978;50.288;28.624;2023-03-13T05:34:05;99208.29;;;-3.05;96.80
60337;BME280;46978;50.288;28.624;2023-03-13T05:35:07;99208.34;;;-3.03;96.77
60337;BME280;46978;50.288;28.624;2023-03-13T05:36:09;99210.09;;;-3.01;96.78
60337;BME280;46978;50.288;28.624;2023-03-13T05:37:10;99214.42;;;-2.98;96.65
60337;BME280;46978;50.288;28.624;2023-03-13T05:38:13;99212.80;;;-2.96;96.52
60337;BME280;46978;50.288;28.624;2023-03-13T05:39:15;99218.86;;;-2.93;96.40
60337;BME280;46978;50.288;28.624;2023-03-13T05:40:16;99219.01;;;-2.88;96.44
60337;BME280;46978;50.288;28.624;2023-03-13T05:41:18;99219.21;;;-2.82;96.26